LGSR Airport Information

Runway Information
Runway 16L Length 6972 ft width 98 ft
Elevation 123 ft Threshold 0 ft Heading 159
Runway 34R Length 6972 ft Width 98 ft
Elevation 53 ft Threshold 0 ft Heading 339
Runway 16R Length 0 ft width 0 ft
Elevation 126 ft Threshold 0 ft Heading 0
Runway 34L Length 0 ft Width 0 ft
Elevation 57 ft Threshold 0 ft Heading 0
Airport Frequencies
Type A/G Name RDO Frequency 563.7 MHZ
Type APP Name APP Frequency 118.05 MHZ
Type TWR Name TWR Frequency 118.05 MHZ
Airport Navaids
Type TACAN Name Santorini Frequency 116400 KHZ
Type VOR-DME Name Santorini Frequency 110400 KHZ
Type NDB Name Thira Frequency 307 KHZ
Airport Weather Information & NOTAM
ADDS - METARS form results

(1125 UTC 22 October 2019)
Data provider http://aviationweather.gov/metar/data/
 
METAR text: LGSR 221120Z 36016KT CAVOK 24/14 Q1016
Conditions at: LGSR (SANTORINI ISLAND, GR) observed 1120 UTC 22 October 2019
Temperature: 24.0°C (75°F)
Dewpoint: 14.0°C (57°F) [RH = 54%]
Pressure (altimeter): 30.00 inches Hg (1016.0 mb)
Winds: from the N (360 degrees) at 18 MPH (16 knots; 8.2 m/s)
Visibility: 6 or more miles (10+ km)
Ceiling: ceiling and visibility are OK
Clouds: unknown
Weather: no significant weather observed at this time

METAR text: LGSR 221050Z 36015KT CAVOK 24/15 Q1016
Conditions at: LGSR (SANTORINI ISLAND, GR) observed 1050 UTC 22 October 2019
Temperature: 24.0°C (75°F)
Dewpoint: 15.0°C (59°F) [RH = 57%]
Pressure (altimeter): 30.00 inches Hg (1016.0 mb)
Winds: from the N (360 degrees) at 17 MPH (15 knots; 7.7 m/s)
Visibility: 6 or more miles (10+ km)
Ceiling: ceiling and visibility are OK
Clouds: unknown
Weather: no significant weather observed at this time

Forecast for: LGSR (SANTORINI ISLAND, GR)
Text: TAF LGSR 221100Z 2212/2312 35018G30KT 9999 FEW018
Forecast period: 1200 UTC 22 October 2019 to 1200 UTC 23 October 2019
Forecast type: FROM: standard forecast or significant change
Winds: from the N (350 degrees) at 21 MPH (18 knots; 9.3 m/s)
gusting to 34 MPH (30 knots; 15.4 m/s)
Visibility: 6 or more miles 10+ km)
Ceiling: at least 12,000 feet AGL
Clouds: few clouds at 1800 feet AGL
Weather: no significant weather forecast for this period